Time;durP1;ratioP1;P1;durP2;ratioP2;P2;SDS_P1;SDS_P2;PMS_P1;PMS_P2;Temp;Humidity;BMP_temperature;BMP_pressure;BME280_temperature;BME280_humidity;BME280_pressure;Samples;Min_cycle;Max_cycle;Signal;HPM_P1;HPM_P2
2022/08/07 00:01:11;;;;;;;15.93;10.27;;;;;;;;;;5053242;28;20048;-64
2022/08/07 00:03:37;;;;;;;19.07;9.93;;;;;;;;;;5053209;28;20128;-63
2022/08/07 00:06:04;;;;;;;18.07;10.77;;;;;;;;;;5052949;28;20049;-64
2022/08/07 00:08:30;;;;;;;17.60;8.83;;;;;;;;;;5052416;28;20503;-63
2022/08/07 00:10:56;;;;;;;15.93;8.50;;;;;;;;;;5052522;28;20060;-64
2022/08/07 00:13:22;;;;;;;12.93;7.67;;;;;;;;;;5053165;28;20049;-64
2022/08/07 00:15:49;;;;;;;13.90;7.90;;;;;;;;;;5052750;28;20503;-64
2022/08/07 00:18:16;;;;;;;18.03;9.87;;;;;;;;;;5052237;28;20053;-64
2022/08/07 00:20:42;;;;;;;14.27;7.67;;;;;;;;;;5051970;28;20048;-64
2022/08/07 00:23:08;;;;;;;23.70;11.10;;;;;;;;;;5052064;28;20101;-64
2022/08/07 00:25:34;;;;;;;23.97;12.13;;;;;;;;;;5051429;28;20466;-64
2022/08/07 00:28:01;;;;;;;21.57;11.90;;;;;;;;;;5052397;28;20045;-64
2022/08/07 00:30:27;;;;;;;24.10;10.90;;;;;;;;;;5051647;28;20079;-64
2022/08/07 00:32:53;;;;;;;20.40;11.47;;;;;;;;;;5050235;28;20053;-64
2022/08/07 00:35:20;;;;;;;20.23;11.53;;;;;;;;;;5051701;28;20037;-63
2022/08/07 00:37:46;;;;;;;20.77;10.87;;;;;;;;;;5050914;28;20067;-64
2022/08/07 00:40:13;;;;;;;20.17;11.17;;;;;;;;;;5051307;28;20087;-64
2022/08/07 00:42:40;;;;;;;18.53;9.23;;;;;;;;;;5050667;28;20044;-64
2022/08/07 00:45:07;;;;;;;16.47;8.83;;;;;;;;;;5050909;28;20092;-63
2022/08/07 00:47:33;;;;;;;16.70;8.57;;;;;;;;;;5051103;28;20045;-64
2022/08/07 00:50:00;;;;;;;16.17;9.37;;;;;;;;;;5049644;28;20047;-64
2022/08/07 00:52:26;;;;;;;17.67;10.00;;;;;;;;;;5050594;28;20502;-63
2022/08/07 00:54:52;;;;;;;15.67;8.83;;;;;;;;;;5050705;28;20135;-63
2022/08/07 00:57:18;;;;;;;19.63;10.40;;;;;;;;;;5050454;28;20623;-64
2022/08/07 00:59:44;;;;;;;23.77;10.60;;;;;;;;;;5050466;28;20052;-64
2022/08/07 01:02:11;;;;;;;17.67;9.30;;;;;;;;;;5050391;28;20037;-64
2022/08/07 01:04:38;;;;;;;19.93;9.17;;;;;;;;;;5050488;28;20059;-64
2022/08/07 01:07:04;;;;;;;16.90;9.43;;;;;;;;;;5051367;28;20063;-64
2022/08/07 01:09:31;;;;;;;16.07;8.77;;;;;;;;;;5050086;28;20052;-64
2022/08/07 01:11:57;;;;;;;15.17;8.47;;;;;;;;;;5049816;28;20052;-64
2022/08/07 01:14:24;;;;;;;17.53;8.77;;;;;;;;;;5050373;28;20048;-64
2022/08/07 01:16:51;;;;;;;19.13;9.03;;;;;;;;;;5050189;28;20041;-64
2022/08/07 01:19:18;;;;;;;18.80;8.47;;;;;;;;;;5049796;28;20492;-64
2022/08/07 01:21:45;;;;;;;19.80;8.90;;;;;;;;;;5050188;28;20115;-64
2022/08/07 01:24:11;;;;;;;16.70;9.23;;;;;;;;;;5049888;28;20076;-64
2022/08/07 01:26:37;;;;;;;23.00;9.77;;;;;;;;;;5050081;28;20047;-63
2022/08/07 01:29:04;;;;;;;19.90;9.60;;;;;;;;;;5049974;28;20055;-64
2022/08/07 01:31:30;;;;;;;23.57;9.93;;;;;;;;;;5050413;28;20057;-64
2022/08/07 01:34:00;;;;;;;20.63;9.23;;;;;;;;;;5050128;28;20116;-64
2022/08/07 01:36:27;;;;;;;20.60;10.43;;;;;;;;;;5049710;28;20045;-64
2022/08/07 01:38:54;;;;;;;21.70;8.13;;;;;;;;;;5049764;28;20033;-64
2022/08/07 01:41:20;;;;;;;17.27;8.63;;;;;;;;;;5049568;28;20041;-64
2022/08/07 01:43:47;;;;;;;20.17;8.83;;;;;;;;;;5049521;28;20041;-64
2022/08/07 01:46:14;;;;;;;17.87;8.97;;;;;;;;;;5049348;28;20502;-64
2022/08/07 01:48:41;;;;;;;15.93;9.13;;;;;;;;;;5041551;28;20083;-64
2022/08/07 01:51:08;;;;;;;13.80;8.43;;;;;;;;;;5049642;28;20049;-64
2022/08/07 01:53:36;;;;;;;19.27;10.30;;;;;;;;;;5049810;28;20083;-64
2022/08/07 01:56:03;;;;;;;21.83;11.33;;;;;;;;;;5049340;28;20044;-64
2022/08/07 01:58:45;;;;;;;24.17;11.10;;;;;;;;;;5048682;28;20491;-64
2022/08/07 02:01:14;;;;;;;25.23;11.53;;;;;;;;;;5048487;28;20502;-64
2022/08/07 02:03:43;;;;;;;22.93;10.80;;;;;;;;;;5048821;28;20135;-64
2022/08/07 02:06:12;;;;;;;24.03;11.97;;;;;;;;;;5049726;28;20045;-64
2022/08/07 02:08:40;;;;;;;22.30;9.80;;;;;;;;;;5048800;28;20074;-64
2022/08/07 02:11:07;;;;;;;20.03;9.63;;;;;;;;;;5049222;28;20092;-64
2022/08/07 02:13:34;;;;;;;19.90;10.27;;;;;;;;;;5048625;28;20105;-64
2022/08/07 02:16:02;;;;;;;21.57;12.03;;;;;;;;;;5048260;28;20128;-64
2022/08/07 02:18:29;;;;;;;21.30;11.27;;;;;;;;;;5049223;28;20098;-64
2022/08/07 02:20:56;;;;;;;26.10;12.80;;;;;;;;;;5048748;28;20037;-64
2022/08/07 02:23:22;;;;;;;18.83;9.87;;;;;;;;;;5048716;28;20491;-64
2022/08/07 02:25:49;;;;;;;21.20;10.57;;;;;;;;;;5048849;28;20047;-64
2022/08/07 02:28:16;;;;;;;16.57;9.30;;;;;;;;;;5048674;28;20514;-64
2022/08/07 02:30:43;;;;;;;16.57;10.00;;;;;;;;;;5049224;28;20063;-64
2022/08/07 02:33:09;;;;;;;19.60;10.47;;;;;;;;;;5049082;28;20056;-64
2022/08/07 02:35:36;;;;;;;19.63;10.20;;;;;;;;;;5048608;28;20056;-64
2022/08/07 02:38:04;;;;;;;19.33;9.13;;;;;;;;;;5048336;28;20463;-64
2022/08/07 02:40:31;;;;;;;18.50;8.93;;;;;;;;;;5049074;28;20048;-64
2022/08/07 02:42:57;;;;;;;24.13;12.23;;;;;;;;;;5048440;28;20454;-64
2022/08/07 02:45:25;;;;;;;15.57;8.07;;;;;;;;;;5048638;28;20052;-64
2022/08/07 02:47:51;;;;;;;18.93;9.23;;;;;;;;;;5048297;28;21680;-64
2022/08/07 02:50:18;;;;;;;19.20;10.03;;;;;;;;;;5048740;28;20479;-64
2022/08/07 02:52:54;;;;;;;26.43;11.63;;;;;;;;;;5048384;28;20055;-64
2022/08/07 02:55:31;;;;;;;26.90;12.70;;;;;;;;;;5048477;28;20400;-64
2022/08/07 02:57:58;;;;;;;25.50;11.63;;;;;;;;;;5047961;28;20041;-64
2022/08/07 03:00:26;;;;;;;24.57;11.73;;;;;;;;;;5048289;28;20048;-64
2022/08/07 03:02:52;;;;;;;21.67;10.57;;;;;;;;;;5048320;28;20049;-64
2022/08/07 03:05:18;;;;;;;21.93;10.53;;;;;;;;;;5048467;28;20507;-64
2022/08/07 03:07:46;;;;;;;20.70;10.40;;;;;;;;;;5048007;28;20041;-64
2022/08/07 03:10:12;;;;;;;23.00;11.07;;;;;;;;;;5047055;28;20064;-64
2022/08/07 03:12:39;;;;;;;21.73;11.83;;;;;;;;;;5048110;28;20037;-64
2022/08/07 03:15:06;;;;;;;18.73;11.43;;;;;;;;;;5048059;28;20064;-64
2022/08/07 03:17:33;;;;;;;24.57;11.67;;;;;;;;;;5048365;28;20055;-64
2022/08/07 03:19:59;;;;;;;25.73;13.20;;;;;;;;;;5047574;28;20044;-64
2022/08/07 03:22:26;;;;;;;25.13;12.47;;;;;;;;;;5048082;28;20524;-64
2022/08/07 03:24:52;;;;;;;25.27;11.87;;;;;;;;;;5048083;28;20462;-64
2022/08/07 03:27:18;;;;;;;27.20;12.40;;;;;;;;;;5047324;28;20236;-64
2022/08/07 03:29:46;;;;;;;22.53;11.80;;;;;;;;;;5046968;28;20041;-64
2022/08/07 03:32:14;;;;;;;31.27;14.63;;;;;;;;;;5039475;28;20052;-64
2022/08/07 03:34:41;;;;;;;26.73;12.37;;;;;;;;;;5046748;28;20045;-64
2022/08/07 03:37:09;;;;;;;22.90;10.90;;;;;;;;;;5047651;28;20506;-64
2022/08/07 03:39:35;;;;;;;18.87;10.73;;;;;;;;;;5046786;28;20052;-64
2022/08/07 03:42:02;;;;;;;21.40;11.67;;;;;;;;;;5047466;28;20041;-64
2022/08/07 03:44:29;;;;;;;20.67;10.23;;;;;;;;;;5047174;28;20040;-64
2022/08/07 03:46:55;;;;;;;23.47;9.87;;;;;;;;;;5047136;28;20052;-64
2022/08/07 03:49:21;;;;;;;23.77;10.60;;;;;;;;;;5047010;28;20037;-64
2022/08/07 03:51:47;;;;;;;28.83;13.63;;;;;;;;;;5047397;28;20145;-64
2022/08/07 03:54:13;;;;;;;25.73;12.10;;;;;;;;;;5046355;28;20437;-64
2022/08/07 03:56:40;;;;;;;23.07;11.40;;;;;;;;;;5046503;28;20037;-64
2022/08/07 03:59:06;;;;;;;24.97;10.70;;;;;;;;;;5046386;28;20049;-64
2022/08/07 04:01:33;;;;;;;26.40;11.80;;;;;;;;;;5047827;28;20045;-64
2022/08/07 04:03:59;;;;;;;25.37;12.53;;;;;;;;;;5047788;28;20051;-64
2022/08/07 04:06:26;;;;;;;26.93;11.13;;;;;;;;;;5047298;28;20041;-64
2022/08/07 04:08:52;;;;;;;25.37;13.00;;;;;;;;;;5047226;28;20641;-64
2022/08/07 04:11:18;;;;;;;23.20;11.67;;;;;;;;;;5047205;28;20056;-64
2022/08/07 04:13:45;;;;;;;23.70;12.20;;;;;;;;;;5047126;28;20048;-64
2022/08/07 04:16:12;;;;;;;29.57;12.23;;;;;;;;;;5046558;28;20041;-64
2022/08/07 04:18:38;;;;;;;21.43;10.00;;;;;;;;;;5046932;28;20041;-64
2022/08/07 04:21:04;;;;;;;25.13;11.07;;;;;;;;;;5046614;28;20045;-64
2022/08/07 04:23:31;;;;;;;20.97;10.10;;;;;;;;;;5046602;28;20505;-64
2022/08/07 04:25:57;;;;;;;20.43;8.50;;;;;;;;;;5046119;28;20079;-65
2022/08/07 04:28:24;;;;;;;18.77;10.50;;;;;;;;;;5046897;28;20086;-64
2022/08/07 04:30:50;;;;;;;21.97;10.87;;;;;;;;;;5046691;28;20153;-65
2022/08/07 04:33:17;;;;;;;21.63;10.00;;;;;;;;;;5046916;28;20049;-65
2022/08/07 04:35:46;;;;;;;22.00;9.37;;;;;;;;;;5046982;28;20051;-64
2022/08/07 04:38:12;;;;;;;23.13;10.13;;;;;;;;;;5046881;28;20033;-64
2022/08/07 04:40:39;;;;;;;30.57;13.03;;;;;;;;;;5047449;28;20045;-64
2022/08/07 04:43:05;;;;;;;20.00;10.07;;;;;;;;;;5046613;28;20057;-64
2022/08/07 04:45:43;;;;;;;23.80;11.33;;;;;;;;;;5047410;28;20041;-64
2022/08/07 04:48:11;;;;;;;33.97;13.10;;;;;;;;;;5050767;28;20049;-64
2022/08/07 04:50:53;;;;;;;25.73;12.27;;;;;;;;;;5050954;28;20098;-64
2022/08/07 04:53:22;;;;;;;22.57;11.27;;;;;;;;;;5050394;28;20040;-64
2022/08/07 04:55:57;;;;;;;21.53;10.60;;;;;;;;;;5050635;28;20040;-64
2022/08/07 04:58:45;;;;;;;22.67;11.47;;;;;;;;;;5049086;28;20053;-64
2022/08/07 05:01:21;;;;;;;25.47;11.73;;;;;;;;;;5050873;28;20051;-64
2022/08/07 05:03:49;;;;;;;26.10;12.40;;;;;;;;;;5050331;28;20041;-64
2022/08/07 05:06:23;;;;;;;30.27;13.13;;;;;;;;;;5050182;28;20095;-64
2022/08/07 05:08:49;;;;;;;23.60;11.47;;;;;;;;;;5050304;28;20099;-64
2022/08/07 05:11:21;;;;;;;26.07;12.87;;;;;;;;;;5050450;28;20107;-64
2022/08/07 05:13:57;;;;;;;29.23;14.13;;;;;;;;;;5049871;28;20041;-64
2022/08/07 05:16:24;;;;;;;22.93;12.90;;;;;;;;;;5050165;28;20041;-64
2022/08/07 05:18:54;;;;;;;35.33;15.10;;;;;;;;;;5049974;28;20151;-64
2022/08/07 05:21:22;;;;;;;25.43;12.87;;;;;;;;;;5050007;28;21142;-65
2022/08/07 05:23:49;;;;;;;29.73;14.03;;;;;;;;;;5049624;28;20141;-65
2022/08/07 05:26:17;;;;;;;28.00;13.70;;;;;;;;;;5049940;28;20057;-64
2022/08/07 05:28:44;;;;;;;22.90;12.43;;;;;;;;;;5050129;28;20045;-64
2022/08/07 05:31:15;;;;;;;26.13;12.83;;;;;;;;;;5041480;28;20048;-64
2022/08/07 05:33:42;;;;;;;27.43;14.53;;;;;;;;;;5049958;28;20041;-64
2022/08/07 05:36:09;;;;;;;33.50;14.23;;;;;;;;;;5049507;28;20045;-64
2022/08/07 05:38:36;;;;;;;30.00;14.33;;;;;;;;;;5050105;28;20118;-64
2022/08/07 05:41:03;;;;;;;29.20;14.57;;;;;;;;;;5049220;28;20040;-64
2022/08/07 05:43:29;;;;;;;32.73;14.53;;;;;;;;;;5049194;28;20040;-64
2022/08/07 05:45:56;;;;;;;28.93;16.10;;;;;;;;;;5049696;28;20045;-64
2022/08/07 05:48:23;;;;;;;40.27;18.13;;;;;;;;;;5049029;28;20060;-64
2022/08/07 05:50:50;;;;;;;36.67;17.50;;;;;;;;;;5049545;28;20045;-64
2022/08/07 05:53:16;;;;;;;33.13;17.13;;;;;;;;;;5049060;28;20049;-64
2022/08/07 05:55:42;;;;;;;45.67;19.53;;;;;;;;;;5049707;28;20037;-64
2022/08/07 05:58:09;;;;;;;27.80;15.40;;;;;;;;;;5048504;28;20654;-65
2022/08/07 06:00:36;;;;;;;31.37;17.13;;;;;;;;;;5049399;28;20049;-64
2022/08/07 06:03:05;;;;;;;42.87;20.20;;;;;;;;;;5048775;28;20044;-64
2022/08/07 06:05:31;;;;;;;38.13;18.37;;;;;;;;;;5049152;28;20129;-64
2022/08/07 06:07:59;;;;;;;39.73;20.03;;;;;;;;;;5048857;28;20037;-64
2022/08/07 06:10:25;;;;;;;44.13;20.77;;;;;;;;;;5049336;28;20068;-64
2022/08/07 06:12:52;;;;;;;41.20;21.70;;;;;;;;;;5040418;28;20052;-65
2022/08/07 06:15:18;;;;;;;38.57;20.40;;;;;;;;;;5048941;28;20045;-65
2022/08/07 06:17:44;;;;;;;42.67;19.40;;;;;;;;;;5049242;28;20049;-65
2022/08/07 06:20:10;;;;;;;41.13;20.73;;;;;;;;;;5048633;28;20118;-65
2022/08/07 06:22:37;;;;;;;37.70;19.63;;;;;;;;;;5048851;28;20064;-65
2022/08/07 06:25:04;;;;;;;40.93;21.97;;;;;;;;;;5040305;28;20411;-65
2022/08/07 06:27:30;;;;;;;40.10;20.67;;;;;;;;;;5048342;28;20128;-64
2022/08/07 06:29:56;;;;;;;42.30;21.20;;;;;;;;;;5048420;28;20484;-65
2022/08/07 06:32:22;;;;;;;36.77;21.17;;;;;;;;;;5048593;28;20053;-65
2022/08/07 06:34:48;;;;;;;41.83;23.53;;;;;;;;;;5048762;28;20047;-65
2022/08/07 06:37:14;;;;;;;44.23;22.67;;;;;;;;;;5040468;28;20041;-65
2022/08/07 06:39:40;;;;;;;35.33;21.03;;;;;;;;;;5048206;28;20052;-65
2022/08/07 06:42:09;;;;;;;39.23;22.20;;;;;;;;;;5048219;28;20511;-65
2022/08/07 06:44:37;;;;;;;28.03;17.57;;;;;;;;;;5048181;28;20086;-65
2022/08/07 06:47:03;;;;;;;28.83;18.00;;;;;;;;;;5047618;28;20037;-65
2022/08/07 06:49:30;;;;;;;34.47;19.57;;;;;;;;;;5048588;28;20401;-65
2022/08/07 06:51:56;;;;;;;23.70;16.37;;;;;;;;;;5048539;28;20048;-65
2022/08/07 06:54:24;;;;;;;26.17;16.20;;;;;;;;;;5047697;28;20084;-65
2022/08/07 06:56:51;;;;;;;25.33;15.37;;;;;;;;;;5048106;28;20041;-65
2022/08/07 06:59:20;;;;;;;29.00;16.73;;;;;;;;;;5047668;28;20131;-65
2022/08/07 07:01:46;;;;;;;24.10;15.47;;;;;;;;;;5041437;28;20552;-65
2022/08/07 07:04:12;;;;;;;23.67;14.33;;;;;;;;;;5047802;28;20045;-67
2022/08/07 07:06:39;;;;;;;23.00;15.47;;;;;;;;;;5047459;28;20058;-65
2022/08/07 07:09:24;;;;;;;18.13;13.03;;;;;;;;;;5047382;28;20091;-65
2022/08/07 07:12:10;;;;;;;22.87;13.67;;;;;;;;;;5040318;28;20048;-65
2022/08/07 07:14:39;;;;;;;14.27;10.23;;;;;;;;;;5045657;28;20060;-65
2022/08/07 07:17:12;;;;;;;21.43;11.90;;;;;;;;;;5047541;28;20049;-65
2022/08/07 07:19:40;;;;;;;15.18;10.95;;;;;;;;;;5047228;28;20044;-65
2022/08/07 07:22:07;;;;;;;13.77;10.43;;;;;;;;;;5047981;28;20057;-65
2022/08/07 07:24:33;;;;;;;13.63;7.37;;;;;;;;;;5047924;28;20132;-65
2022/08/07 07:27:02;;;;;;;12.10;8.33;;;;;;;;;;5047565;28;20059;-65
2022/08/07 07:29:30;;;;;;;10.97;8.67;;;;;;;;;;5047755;28;20044;-65
2022/08/07 07:31:56;;;;;;;8.87;6.37;;;;;;;;;;5047420;28;20388;-65
2022/08/07 07:34:25;;;;;;;11.00;8.03;;;;;;;;;;5047507;28;20047;-65
2022/08/07 07:36:52;;;;;;;11.30;8.30;;;;;;;;;;5046041;28;20076;-65
2022/08/07 07:39:19;;;;;;;11.07;7.30;;;;;;;;;;5046508;28;20047;-64
2022/08/07 07:41:47;;;;;;;7.87;5.80;;;;;;;;;;5046952;28;20132;-64
2022/08/07 07:44:14;;;;;;;9.60;6.90;;;;;;;;;;5047677;28;20037;-64
2022/08/07 07:46:41;;;;;;;8.97;6.00;;;;;;;;;;5047762;28;20045;-64
2022/08/07 07:49:08;;;;;;;8.80;6.23;;;;;;;;;;5047215;28;20037;-64
2022/08/07 07:51:35;;;;;;;7.33;4.87;;;;;;;;;;5047442;28;20076;-64
2022/08/07 07:54:01;;;;;;;8.83;5.63;;;;;;;;;;5048046;28;20171;-64
2022/08/07 07:56:29;;;;;;;7.20;5.40;;;;;;;;;;5047591;28;20045;-65
2022/08/07 07:58:55;;;;;;;9.47;5.20;;;;;;;;;;5047990;28;20044;-65
2022/08/07 08:01:22;;;;;;;8.33;4.87;;;;;;;;;;5046727;28;20045;-65
2022/08/07 08:03:48;;;;;;;7.27;3.93;;;;;;;;;;5047797;28;20033;-65
2022/08/07 08:06:15;;;;;;;4.07;2.90;;;;;;;;;;5047399;28;20048;-64
2022/08/07 08:08:42;;;;;;;7.17;5.23;;;;;;;;;;5047630;28;20049;-64
2022/08/07 08:11:09;;;;;;;7.27;5.23;;;;;;;;;;5047080;28;20053;-64
2022/08/07 08:13:36;;;;;;;6.47;4.23;;;;;;;;;;5047144;28;20037;-64
2022/08/07 08:16:03;;;;;;;5.90;4.43;;;;;;;;;;5047019;28;20551;-64
2022/08/07 08:18:29;;;;;;;6.10;3.90;;;;;;;;;;5047234;28;20099;-65
2022/08/07 08:20:56;;;;;;;5.60;3.60;;;;;;;;;;5049442;28;20499;-65
2022/08/07 08:28:53;;;;;;;6.40;3.80;;;;;;;;;;5050656;28;20045;-65
2022/08/07 08:31:24;;;;;;;7.77;3.37;;;;;;;;;;5050695;28;20089;-65
2022/08/07 08:33:53;;;;;;;4.50;2.83;;;;;;;;;;5051181;28;20125;-65
2022/08/07 08:36:20;;;;;;;7.80;4.37;;;;;;;;;;5050647;28;20053;-65
2022/08/07 08:38:46;;;;;;;4.97;3.87;;;;;;;;;;5050923;28;20591;-65
2022/08/07 08:41:16;;;;;;;5.57;3.23;;;;;;;;;;5051480;28;20529;-65
2022/08/07 08:43:50;;;;;;;4.83;3.53;;;;;;;;;;5050146;28;20132;-65
2022/08/07 08:46:20;;;;;;;5.47;3.00;;;;;;;;;;5051076;28;20374;-65
2022/08/07 08:48:52;;;;;;;7.47;3.33;;;;;;;;;;5050829;28;20041;-65
2022/08/07 08:51:39;;;;;;;4.33;2.90;;;;;;;;;;5050742;28;20515;-65
2022/08/07 08:54:10;;;;;;;4.27;3.10;;;;;;;;;;5050189;28;20037;-65
2022/08/07 08:56:38;;;;;;;5.77;3.53;;;;;;;;;;5050420;28;20049;-65
2022/08/07 08:59:16;;;;;;;4.70;3.50;;;;;;;;;;5050158;28;20049;-65
2022/08/07 09:02:01;;;;;;;5.53;3.70;;;;;;;;;;5050720;28;20049;-65
2022/08/07 09:04:41;;;;;;;5.37;3.47;;;;;;;;;;5050957;28;20045;-65
2022/08/07 09:07:32;;;;;;;7.30;3.50;;;;;;;;;;5043447;28;20033;-65
2022/08/07 09:10:16;;;;;;;6.40;3.83;;;;;;;;;;5050734;28;20057;-65
2022/08/07 09:12:48;;;;;;;4.40;3.53;;;;;;;;;;5049973;28;20084;-65
2022/08/07 09:15:23;;;;;;;5.23;3.23;;;;;;;;;;5048441;28;20049;-65
2022/08/07 09:17:56;;;;;;;4.63;3.00;;;;;;;;;;5049981;28;20127;-65
2022/08/07 09:20:32;;;;;;;4.60;3.47;;;;;;;;;;5050455;28;20096;-65
2022/08/07 09:23:13;;;;;;;4.05;3.17;;;;;;;;;;5050182;28;20514;-65
2022/08/07 09:25:44;;;;;;;7.63;3.50;;;;;;;;;;5050211;28;20052;-65
2022/08/07 09:28:11;;;;;;;5.05;2.78;;;;;;;;;;5042535;28;20045;-65
2022/08/07 09:30:55;;;;;;;4.38;2.65;;;;;;;;;;5050615;28;20037;-65
2022/08/07 09:33:37;;;;;;;3.95;2.13;;;;;;;;;;5043314;28;20175;-65
2022/08/07 09:36:14;;;;;;;3.97;2.60;;;;;;;;;;5049918;28;20823;-65
2022/08/07 09:38:46;;;;;;;4.97;2.10;;;;;;;;;;5050246;28;20064;-65
2022/08/07 09:41:20;;;;;;;3.40;1.95;;;;;;;;;;5049262;28;20052;-65
2022/08/07 09:43:52;;;;;;;3.97;2.10;;;;;;;;;;5049468;28;20033;-65
2022/08/07 09:46:37;;;;;;;3.38;2.28;;;;;;;;;;5042657;28;20407;-66
2022/08/07 09:49:14;;;;;;;3.00;2.22;;;;;;;;;;5049252;28;20462;-65
2022/08/07 09:51:42;;;;;;;5.20;2.33;;;;;;;;;;5049747;28;20877;-65
2022/08/07 09:54:15;;;;;;;4.18;2.13;;;;;;;;;;5049533;28;20356;-65
2022/08/07 09:56:53;;;;;;;3.85;2.83;;;;;;;;;;5049177;28;20466;-65
2022/08/07 09:59:31;;;;;;;2.38;1.52;;;;;;;;;;5049214;28;20124;-65
2022/08/07 10:02:00;;;;;;;2.63;1.67;;;;;;;;;;5049378;28;20052;-65
2022/08/07 10:04:45;;;;;;;3.90;1.67;;;;;;;;;;5045825;28;20055;-65
2022/08/07 10:07:11;;;;;;;7.40;1.85;;;;;;;;;;5049019;28;20095;-65
2022/08/07 10:09:45;;;;;;;4.95;1.25;;;;;;;;;;5048971;28;20041;-65
2022/08/07 10:12:25;;;;;;;3.10;1.92;;;;;;;;;;5048986;28;20098;-65
2022/08/07 10:14:54;;;;;;;4.00;2.13;;;;;;;;;;5049413;28;20098;-65
2022/08/07 10:17:20;;;;;;;2.88;1.77;;;;;;;;;;5048642;28;20053;-65
2022/08/07 10:20:06;;;;;;;3.30;1.95;;;;;;;;;;5049113;28;20041;-65
2022/08/07 10:22:42;;;;;;;2.78;1.70;;;;;;;;;;5040806;28;20041;-65
2022/08/07 10:25:27;;;;;;;2.92;1.52;;;;;;;;;;5048179;28;20041;-65
2022/08/07 10:27:59;;;;;;;3.47;2.08;;;;;;;;;;5048555;28;20076;-65
2022/08/07 10:30:43;;;;;;;5.50;2.08;;;;;;;;;;5048926;28;20499;-65
2022/08/07 10:33:27;;;;;;;3.30;2.22;;;;;;;;;;5048487;28;20060;-65
2022/08/07 10:36:20;;;;;;;4.65;2.28;;;;;;;;;;5042734;28;20043;-65
2022/08/07 10:38:58;;;;;;;4.30;1.88;;;;;;;;;;5048173;28;20044;-66
2022/08/07 10:41:27;;;;;;;2.05;1.58;;;;;;;;;;5048435;28;20049;-65
2022/08/07 10:44:05;;;;;;;3.15;1.73;;;;;;;;;;5048283;28;20041;-63
2022/08/07 10:46:37;;;;;;;3.72;1.88;;;;;;;;;;5047729;28;20052;-63
2022/08/07 10:49:04;;;;;;;;;;;;;;;;;;5048964;28;20123;-63
2022/08/07 10:51:39;;;;;;;3.60;1.70;;;;;;;;;;5048235;28;19924;-63
2022/08/07 10:54:15;;;;;;;2.22;1.63;;;;;;;;;;5048487;28;20041;-63
2022/08/07 10:56:59;;;;;;;3.40;1.42;;;;;;;;;;5048328;28;20041;-63
2022/08/07 10:59:29;;;;;;;3.72;1.80;;;;;;;;;;5048051;28;20055;-64
2022/08/07 11:02:15;;;;;;;3.67;1.58;;;;;;;;;;5048043;28;20097;-64
2022/08/07 11:04:53;;;;;;;3.60;2.05;;;;;;;;;;5039005;28;20046;-64
2022/08/07 11:07:25;;;;;;;2.00;1.30;;;;;;;;;;5048623;28;20056;-64
2022/08/07 11:09:56;;;;;;;2.58;1.45;;;;;;;;;;5047639;28;20506;-64
2022/08/07 11:12:30;;;;;;;2.90;1.30;;;;;;;;;;5047655;28;20045;-64
2022/08/07 11:15:19;;;;;;;5.38;1.80;;;;;;;;;;5047960;28;20322;-64
2022/08/07 11:17:48;;;;;;;2.90;1.50;;;;;;;;;;5046330;28;20045;-64
2022/08/07 11:20:20;;;;;;;2.63;1.20;;;;;;;;;;5047627;28;20053;-64
2022/08/07 11:22:49;;;;;;;2.42;1.30;;;;;;;;;;5047876;28;20067;-64
2022/08/07 11:25:17;;;;;;;3.90;1.27;;;;;;;;;;5047410;28;20053;-64
2022/08/07 11:27:43;;;;;;;4.32;1.48;;;;;;;;;;5047871;28;20095;-64
2022/08/07 11:30:11;;;;;;;4.07;1.25;;;;;;;;;;5047651;28;20045;-64
2022/08/07 11:32:37;;;;;;;2.20;1.23;;;;;;;;;;5047813;28;20608;-65
2022/08/07 11:35:08;;;;;;;2.25;0.90;;;;;;;;;;5047861;28;20043;-64
2022/08/07 11:37:45;;;;;;;2.22;1.33;;;;;;;;;;5047609;28;20126;-64
2022/08/07 11:40:30;;;;;;;2.40;1.45;;;;;;;;;;5040210;28;20037;-64
2022/08/07 11:43:13;;;;;;;2.65;1.42;;;;;;;;;;5047614;28;20037;-64
2022/08/07 11:45:48;;;;;;;2.33;1.48;;;;;;;;;;5047700;28;20049;-64
2022/08/07 11:48:20;;;;;;;3.20;1.20;;;;;;;;;;5047575;28;20045;-64
2022/08/07 11:50:57;;;;;;;3.10;1.20;;;;;;;;;;5047741;28;20041;-64
2022/08/07 11:53:47;;;;;;;2.33;1.30;;;;;;;;;;5040569;28;20396;-64
2022/08/07 11:56:27;;;;;;;2.92;1.30;;;;;;;;;;5049300;28;20108;-64
2022/08/07 11:58:57;;;;;;;4.15;1.58;;;;;;;;;;5050664;28;20044;-64
2022/08/07 12:01:29;;;;;;;4.47;1.38;;;;;;;;;;5052143;28;20041;-64
2022/08/07 12:03:55;;;;;;;;;;;;;;;;;;5051540;28;20041;-64
2022/08/07 12:06:40;;;;;;;2.75;1.08;;;;;;;;;;5052261;28;19927;-64
2022/08/07 12:09:15;;;;;;;1.98;1.30;;;;;;;;;;5051033;28;20190;-64
2022/08/07 12:11:46;;;;;;;2.35;1.20;;;;;;;;;;5051212;28;20053;-64
2022/08/07 12:14:16;;;;;;;2.17;1.10;;;;;;;;;;5051237;28;20410;-64
2022/08/07 12:16:48;;;;;;;1.95;1.08;;;;;;;;;;5051532;28;20499;-65
2022/08/07 12:19:26;;;;;;;3.53;1.02;;;;;;;;;;5050830;28;20041;-65
2022/08/07 12:22:10;;;;;;;1.55;1.00;;;;;;;;;;5051501;28;20055;-65
2022/08/07 12:27:41;;;;;;;1.90;1.20;;;;;;;;;;5050362;28;20049;-64
2022/08/07 12:30:08;;;;;;;2.72;1.13;;;;;;;;;;5050963;28;20045;-65
2022/08/07 12:32:49;;;;;;;2.42;0.95;;;;;;;;;;5051118;28;20052;-65
2022/08/07 12:35:15;;;;;;;3.13;1.30;;;;;;;;;;5051211;28;20127;-65
2022/08/07 12:37:42;;;;;;;1.70;1.15;;;;;;;;;;5050843;28;20037;-65
2022/08/07 12:40:10;;;;;;;3.45;1.35;;;;;;;;;;5050229;28;20044;-64
2022/08/07 12:42:36;;;;;;;1.50;1.10;;;;;;;;;;5050553;28;20037;-65
2022/08/07 12:45:06;;;;;;;2.47;1.13;;;;;;;;;;5050815;28;20044;-65
2022/08/07 12:47:46;;;;;;;1.95;1.10;;;;;;;;;;5050533;28;20048;-64
2022/08/07 12:50:18;;;;;;;4.03;1.30;;;;;;;;;;5050923;28;20045;-65
2022/08/07 12:52:44;;;;;;;;;;;;;;;;;;5050896;28;20045;-65
2022/08/07 12:55:22;;;;;;;1.73;1.17;;;;;;;;;;5050995;28;19974;-64
2022/08/07 12:57:48;;;;;;;2.03;1.23;;;;;;;;;;5050316;28;20049;-65
2022/08/07 13:00:15;;;;;;;2.55;1.00;;;;;;;;;;5050601;28;20045;-65
2022/08/07 13:03:00;;;;;;;2.45;1.13;;;;;;;;;;5050228;28;20094;-65
2022/08/07 13:05:44;;;;;;;1.45;0.90;;;;;;;;;;5050385;28;20048;-65
2022/08/07 13:08:22;;;;;;;1.75;1.00;;;;;;;;;;5048696;28;20041;-65
2022/08/07 13:11:00;;;;;;;2.55;1.52;;;;;;;;;;5050931;28;20045;-65
2022/08/07 13:13:36;;;;;;;3.28;1.20;;;;;;;;;;5050303;28;20175;-65
2022/08/07 13:16:10;;;;;;;2.00;1.33;;;;;;;;;;5050163;28;20049;-65
2022/08/07 13:18:49;;;;;;;2.58;1.50;;;;;;;;;;5042097;28;20124;-65
2022/08/07 13:21:23;;;;;;;2.38;1.35;;;;;;;;;;5050051;28;20470;-65
2022/08/07 13:23:52;;;;;;;2.17;1.08;;;;;;;;;;5050178;28;20045;-64
2022/08/07 13:26:18;;;;;;;3.47;1.55;;;;;;;;;;5049807;28;20079;-64
2022/08/07 13:28:54;;;;;;;2.28;1.50;;;;;;;;;;5050025;28;20040;-64
2022/08/07 13:31:25;;;;;;;2.05;1.45;;;;;;;;;;5049880;28;20110;-65
2022/08/07 13:34:11;;;;;;;2.25;1.55;;;;;;;;;;5049762;28;20185;-65
2022/08/07 13:36:42;;;;;;;3.33;1.60;;;;;;;;;;5049671;28;20076;-65
2022/08/07 13:39:26;;;;;;;2.88;1.63;;;;;;;;;;5049946;28;20171;-65
2022/08/07 13:41:52;;;;;;;2.25;1.60;;;;;;;;;;5049603;28;20045;-65
2022/08/07 13:44:25;;;;;;;2.78;1.50;;;;;;;;;;5049399;28;20048;-65
2022/08/07 13:46:55;;;;;;;4.07;2.03;;;;;;;;;;5048571;28;20411;-65
2022/08/07 13:49:22;;;;;;;4.55;1.52;;;;;;;;;;5049535;28;20053;-65
2022/08/07 13:51:49;;;;;;;4.18;1.70;;;;;;;;;;5049496;28;20087;-65
2022/08/07 13:54:16;;;;;;;3.92;1.50;;;;;;;;;;5050015;28;20060;-65
2022/08/07 13:56:43;;;;;;;1.90;1.25;;;;;;;;;;5041208;28;20645;-65
2022/08/07 13:59:12;;;;;;;3.78;1.40;;;;;;;;;;5049252;28;20049;-65
2022/08/07 14:01:50;;;;;;;1.80;1.10;;;;;;;;;;5049461;28;20438;-65
2022/08/07 14:04:17;;;;;;;2.95;1.35;;;;;;;;;;5049047;28;20064;-65
2022/08/07 14:06:45;;;;;;;3.10;1.58;;;;;;;;;;5049666;28;20037;-65
2022/08/07 14:09:16;;;;;;;2.28;1.30;;;;;;;;;;5049179;28;20049;-65
2022/08/07 14:11:45;;;;;;;1.80;1.30;;;;;;;;;;5049531;28;20507;-65
2022/08/07 14:14:13;;;;;;;2.15;1.40;;;;;;;;;;5049304;28;20388;-65
2022/08/07 14:16:41;;;;;;;2.70;1.38;;;;;;;;;;5048883;28;20045;-65
2022/08/07 14:19:14;;;;;;;2.22;0.95;;;;;;;;;;5049100;28;20065;-65
2022/08/07 14:21:43;;;;;;;2.70;1.27;;;;;;;;;;5048910;28;20060;-65
2022/08/07 14:24:13;;;;;;;1.80;1.30;;;;;;;;;;5048746;28;20060;-65
2022/08/07 14:26:48;;;;;;;2.67;1.10;;;;;;;;;;5048486;28;20106;-65
2022/08/07 14:29:16;;;;;;;2.83;1.60;;;;;;;;;;5048378;28;20052;-63
2022/08/07 14:31:43;;;;;;;3.22;1.50;;;;;;;;;;5048516;28;20041;-63
2022/08/07 14:34:11;;;;;;;2.40;1.50;;;;;;;;;;5048931;28;20076;-63
2022/08/07 14:36:37;;;;;;;3.40;1.40;;;;;;;;;;5048243;28;20074;-63
2022/08/07 14:39:04;;;;;;;2.90;1.42;;;;;;;;;;5048014;28;20037;-63
2022/08/07 14:41:32;;;;;;;4.15;1.60;;;;;;;;;;5048753;28;20048;-63
2022/08/07 14:44:00;;;;;;;3.70;1.60;;;;;;;;;;5048637;28;20135;-63
2022/08/07 14:46:28;;;;;;;2.65;1.40;;;;;;;;;;5048646;28;20095;-63
2022/08/07 14:48:55;;;;;;;2.40;1.50;;;;;;;;;;5048209;28;20037;-63
2022/08/07 14:51:26;;;;;;;2.83;1.50;;;;;;;;;;5048075;28;21242;-63
2022/08/07 14:53:53;;;;;;;2.95;1.60;;;;;;;;;;5048074;28;20794;-62
2022/08/07 14:56:21;;;;;;;3.78;1.48;;;;;;;;;;5048320;28;20151;-63